sensor_id;sensor_type;location;lat;lon;timestamp;pressure;altitude;pressure_sealevel;temperature;humidity
10646;BME280;5371;49.782;9.932;2022-08-19T00:01:17;99091.84;;;21.51;73.14
10646;BME280;5371;49.782;9.932;2022-08-19T00:03:45;99092.22;;;21.40;73.23
10646;BME280;5371;49.782;9.932;2022-08-19T00:06:13;99095.22;;;21.37;73.33
10646;BME280;5371;49.782;9.932;2022-08-19T00:08:40;99094.06;;;21.31;73.23
10646;BME280;5371;49.782;9.932;2022-08-19T00:11:13;99090.25;;;21.34;72.98
10646;BME280;5371;49.782;9.932;2022-08-19T00:13:42;99088.13;;;21.29;73.15
10646;BME280;5371;49.782;9.932;2022-08-19T00:16:13;99088.59;;;21.33;72.97
10646;BME280;5371;49.782;9.932;2022-08-19T00:18:43;99072.03;;;21.22;73.27
10646;BME280;5371;49.782;9.932;2022-08-19T00:21:10;99065.41;;;21.18;73.46
10646;BME280;5371;49.782;9.932;2022-08-19T00:23:39;99062.06;;;21.16;73.41
10646;BME280;5371;49.782;9.932;2022-08-19T00:26:07;99066.72;;;21.14;73.45
10646;BME280;5371;49.782;9.932;2022-08-19T00:28:35;99066.41;;;21.09;73.69
10646;BME280;5371;49.782;9.932;2022-08-19T00:31:08;99066.59;;;21.08;73.40
10646;BME280;5371;49.782;9.932;2022-08-19T00:33:35;99061.31;;;21.00;73.69
10646;BME280;5371;49.782;9.932;2022-08-19T00:36:07;99059.13;;;20.95;74.04
10646;BME280;5371;49.782;9.932;2022-08-19T00:38:38;99061.31;;;21.00;74.04
10646;BME280;5371;49.782;9.932;2022-08-19T00:41:08;99058.81;;;20.98;73.92
10646;BME280;5371;49.782;9.932;2022-08-19T00:43:39;99057.69;;;20.92;74.16
10646;BME280;5371;49.782;9.932;2022-08-19T00:46:09;99050.34;;;20.95;74.22
10646;BME280;5371;49.782;9.932;2022-08-19T00:48:40;99057.66;;;21.01;73.91
10646;BME280;5371;49.782;9.932;2022-08-19T00:51:13;99048.50;;;20.95;74.07
10646;BME280;5371;49.782;9.932;2022-08-19T00:53:41;99050.88;;;20.90;74.04
10646;BME280;5371;49.782;9.932;2022-08-19T00:56:09;99061.50;;;20.90;73.99
10646;BME280;5371;49.782;9.932;2022-08-19T00:58:38;99066.66;;;20.83;74.24
10646;BME280;5371;49.782;9.932;2022-08-19T01:01:06;99066.63;;;20.91;73.77
10646;BME280;5371;49.782;9.932;2022-08-19T01:03:40;99059.56;;;20.76;74.18
10646;BME280;5371;49.782;9.932;2022-08-19T01:06:09;99051.59;;;20.76;74.04
10646;BME280;5371;49.782;9.932;2022-08-19T01:08:40;99052.59;;;20.75;74.23
10646;BME280;5371;49.782;9.932;2022-08-19T01:11:08;99055.91;;;20.69;74.43
10646;BME280;5371;49.782;9.932;2022-08-19T01:13:39;99053.22;;;20.77;74.09
10646;BME280;5371;49.782;9.932;2022-08-19T01:16:10;99060.72;;;20.73;74.17
10646;BME280;5371;49.782;9.932;2022-08-19T01:18:42;99050.41;;;20.70;74.30
10646;BME280;5371;49.782;9.932;2022-08-19T01:21:15;99043.31;;;20.63;74.51
10646;BME280;5371;49.782;9.932;2022-08-19T01:23:50;99040.16;;;20.59;74.51
10646;BME280;5371;49.782;9.932;2022-08-19T01:26:21;99030.06;;;20.54;74.83
10646;BME280;5371;49.782;9.932;2022-08-19T01:28:53;99038.31;;;20.60;74.59
10646;BME280;5371;49.782;9.932;2022-08-19T01:31:25;99039.97;;;20.61;74.50
10646;BME280;5371;49.782;9.932;2022-08-19T01:33:56;99052.13;;;20.55;74.85
10646;BME280;5371;49.782;9.932;2022-08-19T01:36:30;99062.22;;;20.51;75.03
10646;BME280;5371;49.782;9.932;2022-08-19T01:39:03;99070.19;;;20.51;74.95
10646;BME280;5371;49.782;9.932;2022-08-19T01:41:31;99082.16;;;20.47;75.09
10646;BME280;5371;49.782;9.932;2022-08-19T01:43:59;99086.13;;;20.51;74.86
10646;BME280;5371;49.782;9.932;2022-08-19T01:46:29;99096.03;;;20.82;73.65
10646;BME280;5371;49.782;9.932;2022-08-19T01:48:57;99089.56;;;20.76;73.95
10646;BME280;5371;49.782;9.932;2022-08-19T01:51:32;99092.78;;;20.56;74.61
10646;BME280;5371;49.782;9.932;2022-08-19T01:54:01;99084.13;;;20.53;74.66
10646;BME280;5371;49.782;9.932;2022-08-19T01:56:31;99088.28;;;20.56;74.79
10646;BME280;5371;49.782;9.932;2022-08-19T01:59:05;99080.66;;;20.53;74.80
10646;BME280;5371;49.782;9.932;2022-08-19T02:01:36;99077.50;;;20.49;74.98
10646;BME280;5371;49.782;9.932;2022-08-19T02:04:04;99081.50;;;20.45;75.21
10646;BME280;5371;49.782;9.932;2022-08-19T02:06:36;99093.09;;;20.44;75.23
10646;BME280;5371;49.782;9.932;2022-08-19T02:09:11;99096.75;;;20.43;75.11
10646;BME280;5371;49.782;9.932;2022-08-19T02:11:42;99104.03;;;20.41;75.25
10646;BME280;5371;49.782;9.932;2022-08-19T02:14:10;99093.44;;;20.41;75.34
10646;BME280;5371;49.782;9.932;2022-08-19T02:16:37;99093.09;;;20.44;75.12
10646;BME280;5371;49.782;9.932;2022-08-19T02:19:05;99085.63;;;20.40;75.31
10646;BME280;5371;49.782;9.932;2022-08-19T02:21:33;99088.47;;;20.38;75.40
10646;BME280;5371;49.782;9.932;2022-08-19T02:24:00;99089.44;;;20.29;75.69
10646;BME280;5371;49.782;9.932;2022-08-19T02:26:31;99090.28;;;20.30;75.71
10646;BME280;5371;49.782;9.932;2022-08-19T02:29:00;99083.94;;;20.31;75.80
10646;BME280;5371;49.782;9.932;2022-08-19T02:31:28;99086.13;;;20.27;75.91
10646;BME280;5371;49.782;9.932;2022-08-19T02:33:56;99092.25;;;20.28;75.97
10646;BME280;5371;49.782;9.932;2022-08-19T02:36:25;99102.03;;;20.27;76.23
10646;BME280;5371;49.782;9.932;2022-08-19T02:38:53;99097.22;;;20.23;76.12
10646;BME280;5371;49.782;9.932;2022-08-19T02:41:23;99105.00;;;20.24;76.24
10646;BME280;5371;49.782;9.932;2022-08-19T02:43:53;99092.91;;;20.22;76.22
10646;BME280;5371;49.782;9.932;2022-08-19T02:46:26;99088.09;;;20.17;76.34
10646;BME280;5371;49.782;9.932;2022-08-19T02:48:56;99090.75;;;20.17;76.34
10646;BME280;5371;49.782;9.932;2022-08-19T02:51:27;99085.75;;;20.14;76.59
10646;BME280;5371;49.782;9.932;2022-08-19T02:53:55;99100.03;;;20.13;76.71
10646;BME280;5371;49.782;9.932;2022-08-19T02:56:23;99102.88;;;20.11;76.90
10646;BME280;5371;49.782;9.932;2022-08-19T02:58:55;99117.44;;;20.15;76.62
10646;BME280;5371;49.782;9.932;2022-08-19T03:01:37;99126.06;;;20.09;76.99
10646;BME280;5371;49.782;9.932;2022-08-19T03:04:07;99141.31;;;20.15;76.66
10646;BME280;5371;49.782;9.932;2022-08-19T03:06:36;99133.88;;;20.27;76.39
10646;BME280;5371;49.782;9.932;2022-08-19T03:09:04;99138.19;;;20.20;76.52
10646;BME280;5371;49.782;9.932;2022-08-19T03:11:33;99120.94;;;20.16;76.63
10646;BME280;5371;49.782;9.932;2022-08-19T03:14:03;99118.94;;;20.18;76.67
10646;BME280;5371;49.782;9.932;2022-08-19T03:16:39;99112.81;;;20.17;76.47
10646;BME280;5371;49.782;9.932;2022-08-19T03:19:08;99113.94;;;20.15;76.60
10646;BME280;5371;49.782;9.932;2022-08-19T03:21:39;99117.28;;;20.17;76.63
10646;BME280;5371;49.782;9.932;2022-08-19T03:24:11;99115.78;;;20.14;76.67
10646;BME280;5371;49.782;9.932;2022-08-19T03:26:41;99119.25;;;20.23;76.15
10646;BME280;5371;49.782;9.932;2022-08-19T03:29:14;99116.78;;;20.13;76.53
10646;BME280;5371;49.782;9.932;2022-08-19T03:31:43;99119.25;;;20.07;76.96
10646;BME280;5371;49.782;9.932;2022-08-19T03:34:15;99115.28;;;20.03;76.98
10646;BME280;5371;49.782;9.932;2022-08-19T03:36:45;99111.13;;;20.00;77.27
10646;BME280;5371;49.782;9.932;2022-08-19T03:39:15;99107.28;;;19.95;77.53
10646;BME280;5371;49.782;9.932;2022-08-19T03:41:47;99116.28;;;19.94;77.66
10646;BME280;5371;49.782;9.932;2022-08-19T03:44:20;99112.44;;;19.96;77.71
10646;BME280;5371;49.782;9.932;2022-08-19T03:46:50;99113.28;;;19.97;77.60
10646;BME280;5371;49.782;9.932;2022-08-19T03:49:19;99104.00;;;19.93;77.83
10646;BME280;5371;49.782;9.932;2022-08-19T03:51:49;99093.03;;;19.88;78.15
10646;BME280;5371;49.782;9.932;2022-08-19T03:54:18;99097.50;;;19.87;78.22
10646;BME280;5371;49.782;9.932;2022-08-19T03:56:48;99097.34;;;19.89;78.16
10646;BME280;5371;49.782;9.932;2022-08-19T03:59:20;99097.66;;;19.86;78.12
10646;BME280;5371;49.782;9.932;2022-08-19T04:01:53;99102.31;;;19.84;78.44
10646;BME280;5371;49.782;9.932;2022-08-19T04:04:21;99113.09;;;19.82;78.38
10646;BME280;5371;49.782;9.932;2022-08-19T04:06:49;99117.88;;;19.78;78.62
10646;BME280;5371;49.782;9.932;2022-08-19T04:09:17;99112.25;;;19.73;78.74
10646;BME280;5371;49.782;9.932;2022-08-19T04:11:48;99103.47;;;19.73;78.75
10646;BME280;5371;49.782;9.932;2022-08-19T04:14:19;99098.00;;;19.74;78.98
10646;BME280;5371;49.782;9.932;2022-08-19T04:16:48;99088.84;;;19.69;79.25
10646;BME280;5371;49.782;9.932;2022-08-19T04:19:18;99089.00;;;19.67;79.34
10646;BME280;5371;49.782;9.932;2022-08-19T04:21:49;99090.66;;;19.68;79.11
10646;BME280;5371;49.782;9.932;2022-08-19T04:24:22;99092.19;;;19.71;79.25
10646;BME280;5371;49.782;9.932;2022-08-19T04:26:59;99105.94;;;19.66;79.47
10646;BME280;5371;49.782;9.932;2022-08-19T04:29:32;99096.63;;;19.62;79.38
10646;BME280;5371;49.782;9.932;2022-08-19T04:32:00;99107.75;;;19.66;79.64
10646;BME280;5371;49.782;9.932;2022-08-19T04:34:29;99111.53;;;19.63;79.75
10646;BME280;5371;49.782;9.932;2022-08-19T04:36:58;99126.78;;;19.61;79.83
10646;BME280;5371;49.782;9.932;2022-08-19T04:39:28;99125.47;;;19.65;79.65
10646;BME280;5371;49.782;9.932;2022-08-19T04:42:16;99127.47;;;19.71;79.60
10646;BME280;5371;49.782;9.932;2022-08-19T04:45:06;99129.16;;;19.80;79.39
10646;BME280;5371;49.782;9.932;2022-08-19T04:47:35;99132.78;;;19.79;79.40
10646;BME280;5371;49.782;9.932;2022-08-19T04:50:03;99143.56;;;19.78;79.37
10646;BME280;5371;49.782;9.932;2022-08-19T04:52:31;99147.88;;;19.79;79.43
10646;BME280;5371;49.782;9.932;2022-08-19T04:54:58;99143.25;;;19.81;78.87
10646;BME280;5371;49.782;9.932;2022-08-19T04:57:26;99144.06;;;19.82;78.96
10646;BME280;5371;49.782;9.932;2022-08-19T04:59:55;99142.09;;;19.84;78.72
10646;BME280;5371;49.782;9.932;2022-08-19T05:02:25;99147.56;;;19.82;78.73
10646;BME280;5371;49.782;9.932;2022-08-19T05:04:58;99153.03;;;19.89;78.60
10646;BME280;5371;49.782;9.932;2022-08-19T05:07:27;99143.09;;;19.91;78.46
10646;BME280;5371;49.782;9.932;2022-08-19T05:09:56;99151.53;;;19.94;78.37
10646;BME280;5371;49.782;9.932;2022-08-19T05:12:25;99156.22;;;20.00;78.09
10646;BME280;5371;49.782;9.932;2022-08-19T05:14:55;99147.75;;;20.05;77.92
10646;BME280;5371;49.782;9.932;2022-08-19T05:17:25;99145.31;;;20.11;77.48
10646;BME280;5371;49.782;9.932;2022-08-19T05:19:55;99138.50;;;20.17;77.44
10646;BME280;5371;49.782;9.932;2022-08-19T05:22:46;99138.81;;;20.22;77.17
10646;BME280;5371;49.782;9.932;2022-08-19T05:25:17;99138.88;;;20.30;76.91
10646;BME280;5371;49.782;9.932;2022-08-19T05:27:45;99153.16;;;20.37;76.45
10646;BME280;5371;49.782;9.932;2022-08-19T05:30:17;99152.47;;;20.35;76.35
10646;BME280;5371;49.782;9.932;2022-08-19T05:32:46;99160.97;;;20.39;76.22
10646;BME280;5371;49.782;9.932;2022-08-19T05:35:15;99161.44;;;20.42;76.10
10646;BME280;5371;49.782;9.932;2022-08-19T05:37:45;99162.78;;;20.46;75.98
10646;BME280;5371;49.782;9.932;2022-08-19T05:40:14;99162.94;;;20.45;76.14
10646;BME280;5371;49.782;9.932;2022-08-19T05:42:42;99164.25;;;20.49;75.88
10646;BME280;5371;49.782;9.932;2022-08-19T05:45:10;99167.09;;;20.47;75.95
10646;BME280;5371;49.782;9.932;2022-08-19T05:47:38;99166.09;;;20.57;75.50
10646;BME280;5371;49.782;9.932;2022-08-19T05:50:10;99174.88;;;20.49;75.84
10646;BME280;5371;49.782;9.932;2022-08-19T05:52:38;99170.75;;;20.46;76.07
10646;BME280;5371;49.782;9.932;2022-08-19T05:55:09;99175.69;;;20.49;75.84
10646;BME280;5371;49.782;9.932;2022-08-19T05:57:39;99186.31;;;20.49;75.97
10646;BME280;5371;49.782;9.932;2022-08-19T06:00:32;99191.63;;;20.49;76.03
10646;BME280;5371;49.782;9.932;2022-08-19T06:03:00;99192.50;;;20.66;75.36
10646;BME280;5371;49.782;9.932;2022-08-19T06:05:34;99202.91;;;20.60;75.57
10646;BME280;5371;49.782;9.932;2022-08-19T06:08:02;99199.63;;;20.66;75.50
10646;BME280;5371;49.782;9.932;2022-08-19T06:10:33;99207.91;;;20.63;75.58
10646;BME280;5371;49.782;9.932;2022-08-19T06:13:03;99193.97;;;20.61;75.75
10646;BME280;5371;49.782;9.932;2022-08-19T06:15:32;99201.94;;;20.69;75.46
10646;BME280;5371;49.782;9.932;2022-08-19T06:18:04;99202.28;;;20.66;75.47
10646;BME280;5371;49.782;9.932;2022-08-19T06:20:35;99195.63;;;20.78;75.34
10646;BME280;5371;49.782;9.932;2022-08-19T06:23:07;99210.91;;;20.76;75.33
10646;BME280;5371;49.782;9.932;2022-08-19T06:25:36;99204.25;;;20.88;74.88
10646;BME280;5371;49.782;9.932;2022-08-19T06:28:12;99209.22;;;20.91;75.02
10646;BME280;5371;49.782;9.932;2022-08-19T06:30:39;99205.44;;;20.94;74.78
10646;BME280;5371;49.782;9.932;2022-08-19T06:33:07;99210.56;;;21.11;74.29
10646;BME280;5371;49.782;9.932;2022-08-19T06:35:40;99217.34;;;21.14;73.95
10646;BME280;5371;49.782;9.932;2022-08-19T06:38:07;99215.34;;;21.08;74.07
10646;BME280;5371;49.782;9.932;2022-08-19T06:40:35;99216.19;;;21.08;74.16
10646;BME280;5371;49.782;9.932;2022-08-19T06:43:03;99224.81;;;21.10;74.13
10646;BME280;5371;49.782;9.932;2022-08-19T06:45:31;99220.19;;;21.20;73.95
10646;BME280;5371;49.782;9.932;2022-08-19T06:48:01;99235.63;;;21.25;73.57
10646;BME280;5371;49.782;9.932;2022-08-19T06:50:29;99230.63;;;21.38;73.24
10646;BME280;5371;49.782;9.932;2022-08-19T06:52:59;99238.41;;;21.40;73.19
10646;BME280;5371;49.782;9.932;2022-08-19T06:55:29;99240.44;;;21.30;73.59
10646;BME280;5371;49.782;9.932;2022-08-19T06:57:56;99230.88;;;21.59;72.45
10646;BME280;5371;49.782;9.932;2022-08-19T07:00:23;99228.09;;;21.45;72.94
10646;BME280;5371;49.782;9.932;2022-08-19T07:02:51;99236.06;;;21.53;72.70
10646;BME280;5371;49.782;9.932;2022-08-19T07:05:19;99223.72;;;21.60;72.63
10646;BME280;5371;49.782;9.932;2022-08-19T07:07:51;99229.06;;;21.60;72.62
10646;BME280;5371;49.782;9.932;2022-08-19T07:10:20;99231.69;;;21.68;72.34
10646;BME280;5371;49.782;9.932;2022-08-19T07:12:48;99234.47;;;21.83;71.67
10646;BME280;5371;49.782;9.932;2022-08-19T07:15:17;99237.44;;;21.88;71.63
10646;BME280;5371;49.782;9.932;2022-08-19T07:17:50;99232.81;;;21.82;71.88
10646;BME280;5371;49.782;9.932;2022-08-19T07:20:21;99230.31;;;21.80;71.81
10646;BME280;5371;49.782;9.932;2022-08-19T07:22:49;99225.47;;;21.92;71.27
10646;BME280;5371;49.782;9.932;2022-08-19T07:25:17;99231.06;;;22.05;71.07
10646;BME280;5371;49.782;9.932;2022-08-19T07:27:50;99230.84;;;22.15;70.51
10646;BME280;5371;49.782;9.932;2022-08-19T07:30:17;99235.44;;;22.29;70.45
10646;BME280;5371;49.782;9.932;2022-08-19T07:32:45;99240.75;;;22.29;70.47
10646;BME280;5371;49.782;9.932;2022-08-19T07:35:12;99242.75;;;22.27;70.66
10646;BME280;5371;49.782;9.932;2022-08-19T07:37:40;99242.59;;;22.28;70.23
10646;BME280;5371;49.782;9.932;2022-08-19T07:40:11;99240.44;;;22.24;70.40
10646;BME280;5371;49.782;9.932;2022-08-19T07:42:39;99244.09;;;22.23;70.68
10646;BME280;5371;49.782;9.932;2022-08-19T07:45:10;99235.66;;;22.19;70.90
10646;BME280;5371;49.782;9.932;2022-08-19T07:47:39;99244.16;;;22.15;70.91
10646;BME280;5371;49.782;9.932;2022-08-19T07:50:09;99243.44;;;22.29;70.38
10646;BME280;5371;49.782;9.932;2022-08-19T07:52:41;99247.75;;;22.30;70.27
10646;BME280;5371;49.782;9.932;2022-08-19T07:55:11;99248.03;;;22.35;70.28
10646;BME280;5371;49.782;9.932;2022-08-19T07:57:40;99247.75;;;22.22;71.09
10646;BME280;5371;49.782;9.932;2022-08-19T08:00:12;99246.81;;;22.15;71.24
10646;BME280;5371;49.782;9.932;2022-08-19T08:02:40;99254.38;;;22.03;71.78
10646;BME280;5371;49.782;9.932;2022-08-19T08:05:09;99240.41;;;21.93;72.16
10646;BME280;5371;49.782;9.932;2022-08-19T08:07:50;99251.22;;;21.99;71.91
10646;BME280;5371;49.782;9.932;2022-08-19T08:10:35;99248.50;;;22.08;71.90
10646;BME280;5371;49.782;9.932;2022-08-19T08:13:05;99243.50;;;22.13;71.46
10646;BME280;5371;49.782;9.932;2022-08-19T08:15:35;99248.44;;;22.24;71.37
10646;BME280;5371;49.782;9.932;2022-08-19T08:18:08;99250.03;;;22.33;70.78
10646;BME280;5371;49.782;9.932;2022-08-19T08:20:39;99250.63;;;22.74;69.67
10646;BME280;5371;49.782;9.932;2022-08-19T08:23:07;99245.41;;;23.03;68.15
10646;BME280;5371;49.782;9.932;2022-08-19T08:25:51;99253.78;;;23.15;67.34
10646;BME280;5371;49.782;9.932;2022-08-19T08:28:21;99254.84;;;23.43;66.44
10646;BME280;5371;49.782;9.932;2022-08-19T08:30:50;99257.88;;;23.40;66.04
10646;BME280;5371;49.782;9.932;2022-08-19T08:33:19;99266.16;;;23.45;66.29
10646;BME280;5371;49.782;9.932;2022-08-19T08:35:47;99257.97;;;23.47;65.92
10646;BME280;5371;49.782;9.932;2022-08-19T08:38:16;99264.41;;;23.38;66.08
10646;BME280;5371;49.782;9.932;2022-08-19T08:40:47;99268.09;;;23.37;66.03
10646;BME280;5371;49.782;9.932;2022-08-19T08:43:22;99265.03;;;23.25;66.67
10646;BME280;5371;49.782;9.932;2022-08-19T08:45:59;99270.09;;;23.35;66.39
10646;BME280;5371;49.782;9.932;2022-08-19T08:48:36;99260.69;;;23.24;66.22
10646;BME280;5371;49.782;9.932;2022-08-19T08:51:10;99250.75;;;23.18;66.62
10646;BME280;5371;49.782;9.932;2022-08-19T08:53:42;99262.34;;;23.25;66.45
10646;BME280;5371;49.782;9.932;2022-08-19T08:56:14;99270.31;;;23.48;65.81
10646;BME280;5371;49.782;9.932;2022-08-19T08:58:49;99265.69;;;23.42;66.09
10646;BME280;5371;49.782;9.932;2022-08-19T09:01:21;99267.16;;;23.30;66.24
10646;BME280;5371;49.782;9.932;2022-08-19T09:03:51;99265.03;;;23.25;66.29
10646;BME280;5371;49.782;9.932;2022-08-19T09:06:26;99267.16;;;23.44;65.97
10646;BME280;5371;49.782;9.932;2022-08-19T09:09:05;99268.34;;;23.27;66.09
10646;BME280;5371;49.782;9.932;2022-08-19T09:11:49;99260.44;;;23.34;66.17
10646;BME280;5371;49.782;9.932;2022-08-19T09:14:36;99264.56;;;23.22;66.49
10646;BME280;5371;49.782;9.932;2022-08-19T09:17:09;99260.69;;;23.24;65.82
10646;BME280;5371;49.782;9.932;2022-08-19T09:19:50;99261.81;;;23.30;65.79
10646;BME280;5371;49.782;9.932;2022-08-19T09:22:19;99257.38;;;23.22;65.24
10646;BME280;5371;49.782;9.932;2022-08-19T09:24:52;99258.41;;;23.21;65.20
10646;BME280;5371;49.782;9.932;2022-08-19T09:27:21;99254.94;;;23.35;64.93
10646;BME280;5371;49.782;9.932;2022-08-19T09:29:51;99262.00;;;23.28;64.90
10646;BME280;5371;49.782;9.932;2022-08-19T09:32:22;99250.13;;;23.16;65.68
10646;BME280;5371;49.782;9.932;2022-08-19T09:34:52;99249.84;;;23.11;65.58
10646;BME280;5371;49.782;9.932;2022-08-19T09:37:20;99255.38;;;23.24;65.53
10646;BME280;5371;49.782;9.932;2022-08-19T09:39:49;99246.28;;;23.33;65.34
10646;BME280;5371;49.782;9.932;2022-08-19T09:42:17;99246.09;;;23.35;64.88
10646;BME280;5371;49.782;9.932;2022-08-19T09:44:46;99245.84;;;23.30;65.19
10646;BME280;5371;49.782;9.932;2022-08-19T09:47:15;99238.09;;;23.35;65.13
10646;BME280;5371;49.782;9.932;2022-08-19T09:49:46;99241.44;;;23.52;65.00
10646;BME280;5371;49.782;9.932;2022-08-19T09:52:17;99230.34;;;23.63;64.17
10646;BME280;5371;49.782;9.932;2022-08-19T09:54:45;99242.84;;;23.62;64.38
10646;BME280;5371;49.782;9.932;2022-08-19T09:57:13;99235.09;;;23.67;63.65
10646;BME280;5371;49.782;9.932;2022-08-19T09:59:40;99234.84;;;23.62;63.58
10646;BME280;5371;49.782;9.932;2022-08-19T10:02:12;99238.34;;;23.63;63.18
10646;BME280;5371;49.782;9.932;2022-08-19T10:04:47;99244.84;;;23.45;63.30
10646;BME280;5371;49.782;9.932;2022-08-19T10:07:33;99249.50;;;23.43;63.37
10646;BME280;5371;49.782;9.932;2022-08-19T10:10:01;99248.50;;;23.44;63.37
10646;BME280;5371;49.782;9.932;2022-08-19T10:12:31;99265.81;;;23.48;63.15
10646;BME280;5371;49.782;9.932;2022-08-19T10:14:58;99263.78;;;23.50;62.97
10646;BME280;5371;49.782;9.932;2022-08-19T10:17:29;99257.63;;;23.50;62.33
10646;BME280;5371;49.782;9.932;2022-08-19T10:20:04;99258.75;;;23.56;62.03
10646;BME280;5371;49.782;9.932;2022-08-19T10:22:33;99257.38;;;23.60;61.26
10646;BME280;5371;49.782;9.932;2022-08-19T10:25:06;99268.03;;;23.60;61.10
10646;BME280;5371;49.782;9.932;2022-08-19T10:27:36;99257.75;;;23.71;60.76
10646;BME280;5371;49.782;9.932;2022-08-19T10:30:06;99257.00;;;23.92;59.72
10646;BME280;5371;49.782;9.932;2022-08-19T10:32:34;99255.50;;;24.04;58.66
10646;BME280;5371;49.782;9.932;2022-08-19T10:35:04;99255.94;;;24.37;57.56
10646;BME280;5371;49.782;9.932;2022-08-19T10:37:34;99249.84;;;24.43;56.78
10646;BME280;5371;49.782;9.932;2022-08-19T10:40:06;99255.31;;;24.56;55.98
10646;BME280;5371;49.782;9.932;2022-08-19T10:42:51;99250.56;;;24.73;55.26
10646;BME280;5371;49.782;9.932;2022-08-19T10:45:19;99253.44;;;24.93;54.65
10646;BME280;5371;49.782;9.932;2022-08-19T10:47:52;99250.13;;;25.12;53.92
10646;BME280;5371;49.782;9.932;2022-08-19T10:50:24;99237.44;;;25.21;53.39
10646;BME280;5371;49.782;9.932;2022-08-19T10:53:08;99244.69;;;25.33;52.29
10646;BME280;5371;49.782;9.932;2022-08-19T10:55:36;99242.53;;;25.50;51.83
10646;BME280;5371;49.782;9.932;2022-08-19T10:58:22;99251.66;;;25.56;51.61
10646;BME280;5371;49.782;9.932;2022-08-19T11:00:52;99250.50;;;25.65;50.94
10646;BME280;5371;49.782;9.932;2022-08-19T11:03:20;99247.84;;;25.65;50.62
10646;BME280;5371;49.782;9.932;2022-08-19T11:05:58;99239.91;;;25.85;50.14
10646;BME280;5371;49.782;9.932;2022-08-19T11:08:27;99230.16;;;26.18;49.15
10646;BME280;5371;49.782;9.932;2022-08-19T11:10:59;99233.19;;;26.63;47.86
10646;BME280;5371;49.782;9.932;2022-08-19T11:13:28;99227.22;;;26.87;46.98
10646;BME280;5371;49.782;9.932;2022-08-19T11:15:59;99232.78;;;26.66;47.37
10646;BME280;5371;49.782;9.932;2022-08-19T11:18:26;99230.44;;;26.36;48.02
10646;BME280;5371;49.782;9.932;2022-08-19T11:20:54;99227.31;;;26.26;48.43
10646;BME280;5371;49.782;9.932;2022-08-19T11:23:23;99241.25;;;26.15;49.01
10646;BME280;5371;49.782;9.932;2022-08-19T11:25:53;99234.50;;;25.78;49.72
10646;BME280;5371;49.782;9.932;2022-08-19T11:28:21;99235.69;;;25.69;50.15
10646;BME280;5371;49.782;9.932;2022-08-19T11:30:53;99238.72;;;25.59;50.79
10646;BME280;5371;49.782;9.932;2022-08-19T11:33:20;99234.94;;;25.47;51.09
10646;BME280;5371;49.782;9.932;2022-08-19T11:35:48;99235.78;;;25.54;50.86
10646;BME280;5371;49.782;9.932;2022-08-19T11:38:17;99238.91;;;25.58;50.44
10646;BME280;5371;49.782;9.932;2022-08-19T11:41:00;99230.78;;;25.45;50.73
10646;BME280;5371;49.782;9.932;2022-08-19T11:43:28;99235.31;;;25.44;50.82
10646;BME280;5371;49.782;9.932;2022-08-19T11:45:59;99230.91;;;25.30;50.53
10646;BME280;5371;49.782;9.932;2022-08-19T11:48:27;99227.06;;;25.39;50.58
10646;BME280;5371;49.782;9.932;2022-08-19T11:51:02;99222.56;;;25.46;50.34
10646;BME280;5371;49.782;9.932;2022-08-19T11:53:33;99213.91;;;25.44;49.81
10646;BME280;5371;49.782;9.932;2022-08-19T11:56:03;99212.34;;;25.56;49.48
10646;BME280;5371;49.782;9.932;2022-08-19T11:58:32;99209.53;;;25.64;49.01
10646;BME280;5371;49.782;9.932;2022-08-19T12:01:05;99212.69;;;25.75;48.94
10646;BME280;5371;49.782;9.932;2022-08-19T12:03:37;99204.59;;;26.09;48.24
10646;BME280;5371;49.782;9.932;2022-08-19T12:06:09;99204.53;;;25.96;47.18
10646;BME280;5371;49.782;9.932;2022-08-19T12:08:39;99211.06;;;26.34;46.82
10646;BME280;5371;49.782;9.932;2022-08-19T12:11:08;99206.78;;;26.60;46.41
10646;BME280;5371;49.782;9.932;2022-08-19T12:13:36;99217.72;;;26.58;47.43
10646;BME280;5371;49.782;9.932;2022-08-19T12:16:11;99215.66;;;26.54;47.89
10646;BME280;5371;49.782;9.932;2022-08-19T12:18:41;99220.69;;;26.22;48.69
10646;BME280;5371;49.782;9.932;2022-08-19T12:21:12;99212.03;;;26.20;47.94
10646;BME280;5371;49.782;9.932;2022-08-19T12:23:41;99214.91;;;26.12;48.71
10646;BME280;5371;49.782;9.932;2022-08-19T12:26:13;99211.97;;;26.00;49.70
10646;BME280;5371;49.782;9.932;2022-08-19T12:28:43;99216.06;;;25.96;49.61
10646;BME280;5371;49.782;9.932;2022-08-19T12:31:12;99206.78;;;25.86;49.67
10646;BME280;5371;49.782;9.932;2022-08-19T12:33:41;99209.84;;;25.83;49.90
10646;BME280;5371;49.782;9.932;2022-08-19T12:36:12;99208.34;;;25.74;49.70
10646;BME280;5371;49.782;9.932;2022-08-19T12:38:40;99216.88;;;25.90;49.05
10646;BME280;5371;49.782;9.932;2022-08-19T12:41:10;99213.16;;;25.85;49.01
10646;BME280;5371;49.782;9.932;2022-08-19T12:43:42;99223.38;;;25.75;49.31
10646;BME280;5371;49.782;9.932;2022-08-19T12:46:11;99217.78;;;25.69;49.36
10646;BME280;5371;49.782;9.932;2022-08-19T12:48:40;99228.47;;;25.63;49.65
10646;BME280;5371;49.782;9.932;2022-08-19T12:51:12;99231.91;;;25.57;49.67
10646;BME280;5371;49.782;9.932;2022-08-19T12:54:00;99234.41;;;25.58;49.15
10646;BME280;5371;49.782;9.932;2022-08-19T12:56:29;99238.53;;;25.61;48.84
10646;BME280;5371;49.782;9.932;2022-08-19T12:59:04;99233.69;;;25.78;48.72
10646;BME280;5371;49.782;9.932;2022-08-19T13:01:34;99228.84;;;25.94;48.44
10646;BME280;5371;49.782;9.932;2022-08-19T13:04:02;99234.44;;;26.06;47.48
10646;BME280;5371;49.782;9.932;2022-08-19T13:06:31;99233.69;;;25.78;47.69
10646;BME280;5371;49.782;9.932;2022-08-19T13:09:01;99231.59;;;25.66;47.93
10646;BME280;5371;49.782;9.932;2022-08-19T13:11:32;99230.50;;;25.61;48.10
10646;BME280;5371;49.782;9.932;2022-08-19T13:14:02;99234.47;;;25.71;48.00
10646;BME280;5371;49.782;9.932;2022-08-19T13:16:31;99236.53;;;25.69;47.85
10646;BME280;5371;49.782;9.932;2022-08-19T13:18:58;99234.13;;;25.81;47.63
10646;BME280;5371;49.782;9.932;2022-08-19T13:21:30;99225.09;;;25.89;47.00
10646;BME280;5371;49.782;9.932;2022-08-19T13:23:58;99225.19;;;26.08;46.17
10646;BME280;5371;49.782;9.932;2022-08-19T13:26:26;99216.13;;;26.09;46.27
10646;BME280;5371;49.782;9.932;2022-08-19T13:28:56;99215.59;;;26.27;45.84